Time;durP1;ratioP1;P1;durP2;ratioP2;P2;SDS_P1;SDS_P2;PMS_P1;PMS_P2;Temp;Humidity;BMP_temperature;BMP_pressure;BME280_temperature;BME280_humidity;BME280_pressure;Samples;Min_cycle;Max_cycle;Signal;HPM_P1;HPM_P2
2023/08/01 00:01:53;;;;;;;8.00;3.30;;;;;;;;;;4896274;29;20507;-76
2023/08/01 00:04:19;;;;;;;9.55;3.38;;;;;;;;;;4897064;29;20107;-76
2023/08/01 00:06:44;;;;;;;6.97;2.92;;;;;;;;;;4896057;29;20040;-75
2023/08/01 00:09:09;;;;;;;8.38;2.85;;;;;;;;;;4882222;29;20453;-74
2023/08/01 00:11:35;;;;;;;9.23;3.03;;;;;;;;;;4878595;29;20040;-75
2023/08/01 00:14:01;;;;;;;8.52;3.38;;;;;;;;;;4861963;29;20424;-76
2023/08/01 00:16:27;;;;;;;9.13;3.03;;;;;;;;;;4877416;29;20037;-76
2023/08/01 00:18:52;;;;;;;6.28;3.00;;;;;;;;;;4877608;29;20040;-74
2023/08/01 00:21:18;;;;;;;6.15;2.75;;;;;;;;;;4877357;29;20029;-75
2023/08/01 00:23:43;;;;;;;8.23;2.60;;;;;;;;;;4877338;29;20070;-75
2023/08/01 00:26:09;;;;;;;8.07;3.08;;;;;;;;;;4877565;29;20045;-76
2023/08/01 00:28:34;;;;;;;8.40;3.00;;;;;;;;;;4862309;29;20128;-76
2023/08/01 00:31:08;;;;;;;7.10;2.92;;;;;;;;;;4865683;29;20033;-75
2023/08/01 00:33:34;;;;;;;7.78;3.35;;;;;;;;;;4878450;29;20064;-74
2023/08/01 00:35:59;;;;;;;5.35;2.75;;;;;;;;;;4877351;29;20456;-75
2023/08/01 00:38:25;;;;;;;9.60;3.00;;;;;;;;;;4877749;29;20107;-75
2023/08/01 00:40:50;;;;;;;8.75;3.08;;;;;;;;;;4877222;29;20408;-76
2023/08/01 00:43:16;;;;;;;5.22;3.10;;;;;;;;;;4877133;29;20069;-77
2023/08/01 00:45:42;;;;;;;7.50;3.00;;;;;;;;;;4878257;29;20124;-76
2023/08/01 00:48:07;;;;;;;8.80;2.90;;;;;;;;;;4892603;29;20157;-76
2023/08/01 00:50:33;;;;;;;14.35;2.80;;;;;;;;;;4877164;29;20063;-76
2023/08/01 00:52:58;;;;;;;7.82;2.75;;;;;;;;;;4892560;29;20033;-74
2023/08/01 00:55:26;;;;;;;12.13;2.70;;;;;;;;;;4883186;29;20033;-76
2023/08/01 00:57:52;;;;;;;6.53;2.97;;;;;;;;;;4883230;29;20029;-75
2023/08/01 01:00:18;;;;;;;6.93;2.55;;;;;;;;;;4874414;29;20032;-75
2023/08/01 01:02:44;;;;;;;7.03;3.13;;;;;;;;;;4900794;29;20035;-75
2023/08/01 01:05:09;;;;;;;7.22;2.92;;;;;;;;;;4899461;29;20127;-75
2023/08/01 01:07:36;;;;;;;8.98;2.70;;;;;;;;;;4879742;29;20025;-75
2023/08/01 01:10:02;;;;;;;8.50;2.88;;;;;;;;;;4899254;29;20119;-75
2023/08/01 01:12:28;;;;;;;5.60;2.50;;;;;;;;;;4914570;29;20115;-76
2023/08/01 01:14:54;;;;;;;6.40;3.58;;;;;;;;;;4899024;29;20425;-73
2023/08/01 01:17:19;;;;;;;5.72;2.80;;;;;;;;;;4883144;29;20044;-76
2023/08/01 01:19:45;;;;;;;5.68;2.35;;;;;;;;;;4914758;29;20040;-75
2023/08/01 01:22:11;;;;;;;5.22;2.58;;;;;;;;;;4898889;29;20021;-75
2023/08/01 01:24:37;;;;;;;5.45;2.30;;;;;;;;;;4898808;29;20498;-74
2023/08/01 01:27:03;;;;;;;7.35;3.72;;;;;;;;;;4883279;29;20107;-75
2023/08/01 01:29:30;;;;;;;8.00;2.50;;;;;;;;;;4896492;29;20032;-74
2023/08/01 01:31:55;;;;;;;6.47;2.58;;;;;;;;;;4880186;29;20034;-75
2023/08/01 01:34:21;;;;;;;6.88;2.58;;;;;;;;;;4881204;29;20037;-74
2023/08/01 01:36:47;;;;;;;6.28;2.70;;;;;;;;;;4879887;29;20052;-75
2023/08/01 01:39:12;;;;;;;8.80;2.80;;;;;;;;;;4881117;29;20040;-74
2023/08/01 01:41:38;;;;;;;4.97;2.63;;;;;;;;;;4880129;29;20548;-74
2023/08/01 01:44:03;;;;;;;6.00;2.72;;;;;;;;;;4879753;29;20089;-74
2023/08/01 01:46:29;;;;;;;6.80;2.33;;;;;;;;;;4881101;29;20518;-74
2023/08/01 01:48:55;;;;;;;6.43;2.40;;;;;;;;;;4879966;29;20560;-73
2023/08/01 01:51:25;;;;;;;9.27;3.35;;;;;;;;;;4881841;29;20033;-74
2023/08/01 01:53:50;;;;;;;5.80;2.65;;;;;;;;;;4881522;29;20033;-75
2023/08/01 01:56:16;;;;;;;7.90;2.72;;;;;;;;;;4902683;29;20040;-74
2023/08/01 01:58:42;;;;;;;7.90;3.20;;;;;;;;;;4879948;29;20376;-75
2023/08/01 02:01:07;;;;;;;5.57;3.20;;;;;;;;;;4875924;29;20033;-75
2023/08/01 02:03:33;;;;;;;5.95;2.90;;;;;;;;;;4895523;29;20033;-75
2023/08/01 02:05:58;;;;;;;6.78;2.63;;;;;;;;;;4879886;29;20404;-75
2023/08/01 02:08:24;;;;;;;5.82;2.72;;;;;;;;;;4887681;29;20420;-74
2023/08/01 02:10:49;;;;;;;6.97;3.00;;;;;;;;;;4879948;29;20091;-75
2023/08/01 02:13:16;;;;;;;7.63;3.20;;;;;;;;;;4880864;29;20124;-75
2023/08/01 02:15:42;;;;;;;7.88;3.15;;;;;;;;;;4880942;29;20160;-76
2023/08/01 02:18:07;;;;;;;7.68;3.40;;;;;;;;;;4881761;29;20112;-77
2023/08/01 02:20:33;;;;;;;6.88;3.45;;;;;;;;;;4881119;29;20108;-74
2023/08/01 02:22:58;;;;;;;8.18;2.97;;;;;;;;;;4864140;29;20386;-76
2023/08/01 02:25:25;;;;;;;5.68;3.05;;;;;;;;;;4879661;29;20489;-76
2023/08/01 02:27:50;;;;;;;8.77;3.08;;;;;;;;;;4881193;29;20068;-76
2023/08/01 02:30:16;;;;;;;7.03;2.88;;;;;;;;;;4879862;29;20412;-76
2023/08/01 02:32:42;;;;;;;7.90;3.13;;;;;;;;;;4864491;29;20120;-75
2023/08/01 02:35:08;;;;;;;7.47;2.72;;;;;;;;;;4880038;29;20192;-76
2023/08/01 02:37:34;;;;;;;5.88;2.92;;;;;;;;;;4896149;23;20058;-77
2023/08/01 02:40:07;;;;;;;6.35;2.70;;;;;;;;;;4903001;29;20028;-78
2023/08/01 02:42:32;;;;;;;5.35;2.63;;;;;;;;;;4930787;29;20033;-77
2023/08/01 02:44:58;;;;;;;5.45;3.20;;;;;;;;;;4917020;29;20032;-78
2023/08/01 02:47:24;;;;;;;4.82;2.60;;;;;;;;;;4918156;29;20051;-79
2023/08/01 02:49:49;;;;;;;5.20;2.47;;;;;;;;;;4936293;29;20515;-79
2023/08/01 02:52:15;;;;;;;5.80;2.85;;;;;;;;;;4926815;29;20036;-78
2023/08/01 02:54:40;;;;;;;4.57;2.38;;;;;;;;;;4926975;29;20032;-78
2023/08/01 02:57:06;;;;;;;5.95;2.70;;;;;;;;;;4922239;29;20507;-78
2023/08/01 02:59:32;;;;;;;6.50;2.55;;;;;;;;;;4920510;29;20249;-78
2023/08/01 03:01:59;;;;;;;4.88;2.58;;;;;;;;;;4918738;29;20499;-78
2023/08/01 03:04:24;;;;;;;7.18;2.60;;;;;;;;;;4901311;29;20052;-77
2023/08/01 03:06:50;;;;;;;9.45;2.67;;;;;;;;;;4884880;29;20511;-77
2023/08/01 03:09:15;;;;;;;4.63;2.25;;;;;;;;;;4901163;29;20036;-78
2023/08/01 03:11:41;;;;;;;7.30;2.25;;;;;;;;;;4901182;29;20036;-78
2023/08/01 03:14:07;;;;;;;4.47;2.35;;;;;;;;;;4901211;29;20032;-77
2023/08/01 03:16:32;;;;;;;6.72;2.38;;;;;;;;;;4917302;29;20110;-76
2023/08/01 03:19:04;;;;;;;7.28;2.22;;;;;;;;;;4917524;29;20035;-78
2023/08/01 03:21:31;;;;;;;6.53;2.20;;;;;;;;;;4917513;29;20039;-76
2023/08/01 03:23:57;;;;;;;6.82;2.40;;;;;;;;;;4900554;29;20055;-78
2023/08/01 03:26:22;;;;;;;4.63;1.98;;;;;;;;;;4917366;29;20070;-79
2023/08/01 03:28:48;;;;;;;6.38;2.35;;;;;;;;;;4900677;29;20028;-77
2023/08/01 03:31:13;;;;;;;5.72;2.30;;;;;;;;;;4900351;29;20047;-78
2023/08/01 03:33:39;;;;;;;5.22;2.10;;;;;;;;;;4916965;29;20099;-78
2023/08/01 03:36:04;;;;;;;6.35;2.08;;;;;;;;;;4884231;29;20100;-78
2023/08/01 03:38:30;;;;;;;7.65;3.63;;;;;;;;;;4916860;29;20040;-76
2023/08/01 03:40:56;;;;;;;4.10;2.03;;;;;;;;;;4899862;29;20506;-78
2023/08/01 03:43:23;;;;;;;5.20;2.60;;;;;;;;;;4916831;29;20443;-77
2023/08/01 03:45:49;;;;;;;4.82;2.08;;;;;;;;;;4916746;29;20170;-77
2023/08/01 03:48:15;;;;;;;3.83;2.22;;;;;;;;;;4916509;29;20402;-77
2023/08/01 03:50:40;;;;;;;5.28;2.58;;;;;;;;;;4916458;29;20035;-77
2023/08/01 03:53:07;;;;;;;5.80;2.67;;;;;;;;;;4916571;29;20035;-78
2023/08/01 03:55:32;;;;;;;5.90;2.40;;;;;;;;;;4916880;29;20081;-78
2023/08/01 03:57:58;;;;;;;5.60;2.13;;;;;;;;;;4899898;29;20072;-77
2023/08/01 04:00:23;;;;;;;6.88;2.53;;;;;;;;;;4916742;29;20028;-79
2023/08/01 04:02:49;;;;;;;5.72;2.17;;;;;;;;;;4916384;29;20020;-79
2023/08/01 04:05:18;;;;;;;7.22;2.67;;;;;;;;;;4916469;29;20092;-78
2023/08/01 04:07:43;;;;;;;8.90;2.00;;;;;;;;;;4915875;29;20348;-80
2023/08/01 04:10:09;;;;;;;4.35;2.35;;;;;;;;;;4880457;29;20036;-77
2023/08/01 04:12:34;;;;;;;7.85;2.35;;;;;;;;;;4897351;29;20060;-78
2023/08/01 04:15:00;;;;;;;7.32;3.65;;;;;;;;;;4896438;29;20043;-79
2023/08/01 04:17:26;;;;;;;5.03;2.63;;;;;;;;;;4899679;29;20087;-81
2023/08/01 04:19:52;;;;;;;6.50;2.67;;;;;;;;;;4899968;29;20507;-81
2023/08/01 04:22:17;;;;;;;6.90;2.45;;;;;;;;;;4916202;29;20024;-79
2023/08/01 04:24:43;;;;;;;6.85;2.17;;;;;;;;;;4883636;29;20036;-79
2023/08/01 04:27:08;;;;;;;4.30;2.65;;;;;;;;;;4899097;29;20025;-79
2023/08/01 04:29:34;;;;;;;6.28;3.00;;;;;;;;;;4899297;29;20047;-79
2023/08/01 04:31:59;;;;;;;5.38;2.38;;;;;;;;;;4915901;29;20036;-78
2023/08/01 04:34:25;;;;;;;6.07;2.33;;;;;;;;;;4899282;29;20036;-79
2023/08/01 04:36:51;;;;;;;7.20;2.15;;;;;;;;;;4915667;29;20029;-80
2023/08/01 04:39:19;;;;;;;6.03;2.78;;;;;;;;;;4916165;29;20024;-80
2023/08/01 04:41:44;;;;;;;5.18;2.40;;;;;;;;;;4920708;29;20065;-80
2023/08/01 04:44:10;;;;;;;6.40;2.50;;;;;;;;;;4917347;29;20460;-80
2023/08/01 04:46:36;;;;;;;4.50;1.92;;;;;;;;;;4916691;29;20519;-80
2023/08/01 04:49:01;;;;;;;5.47;2.20;;;;;;;;;;4915254;29;20492;-77
2023/08/01 04:51:27;;;;;;;4.05;2.25;;;;;;;;;;4899250;29;20024;-79
2023/08/01 04:53:53;;;;;;;3.92;1.80;;;;;;;;;;4899268;29;20119;-79
2023/08/01 04:56:18;;;;;;;7.57;2.30;;;;;;;;;;4915963;29;20091;-79
2023/08/01 04:58:44;;;;;;;5.15;1.88;;;;;;;;;;4899286;29;20499;-79
2023/08/01 05:01:09;;;;;;;4.97;2.28;;;;;;;;;;4916301;29;20034;-77
2023/08/01 05:03:35;;;;;;;5.97;2.10;;;;;;;;;;4899479;29;20036;-80
2023/08/01 05:06:00;;;;;;;4.10;2.03;;;;;;;;;;4899070;29;20071;-77
2023/08/01 05:08:26;;;;;;;5.00;1.90;;;;;;;;;;4915888;29;20078;-79
2023/08/01 05:10:51;;;;;;;3.90;2.08;;;;;;;;;;4899365;29;20380;-79
2023/08/01 05:13:17;;;;;;;4.00;1.95;;;;;;;;;;4880503;29;20036;-78
2023/08/01 05:15:49;;;;;;;5.07;2.30;;;;;;;;;;4881042;29;20408;-79
2023/08/01 05:18:15;;;;;;;4.45;2.00;;;;;;;;;;4900054;29;20103;-78
2023/08/01 05:20:41;;;;;;;6.93;2.25;;;;;;;;;;4900573;29;20036;-78
2023/08/01 05:23:06;;;;;;;4.18;1.98;;;;;;;;;;4902457;29;20020;-77
2023/08/01 05:25:32;;;;;;;5.95;2.10;;;;;;;;;;4894458;29;20033;-78
2023/08/01 05:27:57;;;;;;;6.20;1.95;;;;;;;;;;4916094;29;20097;-78
2023/08/01 05:30:24;;;;;;;6.00;2.22;;;;;;;;;;4916113;29;20091;-79
2023/08/01 05:32:49;;;;;;;4.35;2.22;;;;;;;;;;4915700;29;20088;-78
2023/08/01 05:35:15;;;;;;;4.45;1.60;;;;;;;;;;4897316;29;20044;-79
2023/08/01 05:37:40;;;;;;;5.57;2.38;;;;;;;;;;4910442;29;20049;-78
2023/08/01 05:40:06;;;;;;;8.65;2.13;;;;;;;;;;4884720;29;20638;-78
2023/08/01 05:42:32;;;;;;;4.13;1.75;;;;;;;;;;4886983;29;20077;-77
2023/08/01 05:44:57;;;;;;;6.45;1.92;;;;;;;;;;4854249;29;20048;-78
2023/08/01 05:47:23;;;;;;;6.25;2.10;;;;;;;;;;4868793;29;20110;-78
2023/08/01 05:49:49;;;;;;;4.95;2.13;;;;;;;;;;4884442;29;20559;-78
2023/08/01 05:52:14;;;;;;;5.38;2.08;;;;;;;;;;4900789;29;20445;-78
2023/08/01 05:54:40;;;;;;;5.55;1.90;;;;;;;;;;4884058;29;20061;-77
2023/08/01 05:57:06;;;;;;;4.75;1.95;;;;;;;;;;4917339;29;20032;-78
2023/08/01 05:59:31;;;;;;;6.03;1.67;;;;;;;;;;4886464;29;20060;-78
2023/08/01 06:01:57;;;;;;;8.68;2.88;;;;;;;;;;4886500;29;20036;-77
2023/08/01 06:04:23;;;;;;;5.55;1.90;;;;;;;;;;4917397;29;20059;-78
2023/08/01 06:06:48;;;;;;;4.15;1.80;;;;;;;;;;4917114;29;20036;-79
2023/08/01 06:09:14;;;;;;;4.72;2.03;;;;;;;;;;4901776;29;20479;-79
2023/08/01 06:11:39;;;;;;;4.32;1.77;;;;;;;;;;4919892;29;20036;-81
2023/08/01 06:14:06;;;;;;;8.07;1.63;;;;;;;;;;4902573;29;20032;-81
2023/08/01 06:16:32;;;;;;;4.03;1.52;;;;;;;;;;4887085;29;20039;-82
2023/08/01 06:18:58;;;;;;;3.10;1.40;;;;;;;;;;4919243;29;20028;-81
2023/08/01 06:21:23;;;;;;;5.53;1.60;;;;;;;;;;4917340;29;20039;-81
2023/08/01 06:23:49;;;;;;;4.57;1.33;;;;;;;;;;4901845;29;20042;-80
2023/08/01 06:26:15;;;;;;;5.78;2.47;;;;;;;;;;4918480;29;20038;-80
2023/08/01 06:28:41;;;;;;;5.10;1.33;;;;;;;;;;4902017;29;20109;-83
2023/08/01 06:31:06;;;;;;;3.10;1.40;;;;;;;;;;4901242;29;20036;-84
2023/08/01 06:33:32;;;;;;;4.95;1.45;;;;;;;;;;4918290;29;20046;-80
2023/08/01 06:35:58;;;;;;;2.38;1.30;;;;;;;;;;4885651;29;20056;-82
2023/08/01 06:38:23;;;;;;;3.85;1.30;;;;;;;;;;4901082;29;20039;-80
2023/08/01 06:40:49;;;;;;;2.10;1.20;;;;;;;;;;4901565;29;20400;-81
2023/08/01 06:43:14;;;;;;;4.75;1.38;;;;;;;;;;4901101;29;20455;-82
2023/08/01 06:45:40;;;;;;;3.47;1.45;;;;;;;;;;4901518;29;20056;-78
2023/08/01 06:48:06;;;;;;;2.65;1.20;;;;;;;;;;4885774;29;20075;-80
2023/08/01 06:50:31;;;;;;;4.03;1.02;;;;;;;;;;4901306;29;20032;-80
2023/08/01 06:52:57;;;;;;;1.70;0.90;;;;;;;;;;4884711;29;20032;-81
2023/08/01 06:55:22;;;;;;;3.65;1.05;;;;;;;;;;4881980;29;20036;-79
2023/08/01 06:57:48;;;;;;;2.33;1.00;;;;;;;;;;4899172;29;20030;-78
2023/08/01 07:00:13;;;;;;;2.35;1.08;;;;;;;;;;4884407;29;20032;-81
2023/08/01 07:02:39;;;;;;;2.30;1.13;;;;;;;;;;4883497;29;20511;-81
2023/08/01 07:05:04;;;;;;;2.88;0.90;;;;;;;;;;4883394;29;20050;-80
2023/08/01 07:07:30;;;;;;;3.17;0.93;;;;;;;;;;4877187;29;20123;-78
2023/08/01 07:09:56;;;;;;;1.73;0.80;;;;;;;;;;4920663;29;20071;-81
2023/08/01 07:12:21;;;;;;;2.90;1.17;;;;;;;;;;4903574;29;20410;-82
2023/08/01 07:14:47;;;;;;;3.78;1.08;;;;;;;;;;4899468;29;20488;-86
2023/08/01 07:17:12;;;;;;;3.75;0.90;;;;;;;;;;4887067;29;20040;-87
2023/08/01 07:19:38;;;;;;;3.85;1.10;;;;;;;;;;4885280;29;20462;-88
2023/08/01 07:22:03;;;;;;;2.55;1.13;;;;;;;;;;4868330;29;20071;-87
2023/08/01 07:24:29;;;;;;;2.38;1.08;;;;;;;;;;4902340;29;20511;-87
2023/08/01 07:26:54;;;;;;;1.65;0.60;;;;;;;;;;4920255;29;20119;-86
2023/08/01 07:29:20;;;;;;;1.67;0.70;;;;;;;;;;4904621;29;20036;-82
2023/08/01 07:31:46;;;;;;;3.80;0.80;;;;;;;;;;4904528;29;20032;-80
2023/08/01 07:34:11;;;;;;;7.20;0.80;;;;;;;;;;4922237;29;20411;-80
2023/08/01 07:36:38;;;;;;;3.50;1.00;;;;;;;;;;4920015;29;20032;-79
2023/08/01 07:39:04;;;;;;;4.18;0.70;;;;;;;;;;4905398;29;20032;-79
2023/08/01 07:41:30;;;;;;;4.32;1.30;;;;;;;;;;4903720;29;20171;-80
2023/08/01 07:43:55;;;;;;;6.50;1.10;;;;;;;;;;4886849;29;20032;-86
2023/08/01 07:46:21;;;;;;;2.45;1.00;;;;;;;;;;4907945;29;20043;-85
2023/08/01 07:48:46;;;;;;;2.72;1.00;;;;;;;;;;4911610;29;20036;-86
2023/08/01 07:51:12;;;;;;;3.00;1.42;;;;;;;;;;4929203;29;20055;-84
2023/08/01 07:53:38;;;;;;;7.50;1.15;;;;;;;;;;4894925;29;20091;-85
2023/08/01 07:56:06;;;;;;;4.90;1.20;;;;;;;;;;4883329;29;20032;-87
2023/08/01 07:58:32;;;;;;;4.72;1.38;;;;;;;;;;4867314;29;20035;-84
2023/08/01 08:01:02;;;;;;;3.42;1.10;;;;;;;;;;4888329;29;20029;-85
2023/08/01 08:03:30;;;;;;;4.30;1.15;;;;;;;;;;4908056;29;20115;-84
2023/08/01 08:05:56;;;;;;;4.65;1.10;;;;;;;;;;4921793;29;20047;-82
2023/08/01 08:08:21;;;;;;;1.85;0.85;;;;;;;;;;4899648;29;20036;-86
2023/08/01 08:10:47;;;;;;;5.75;0.88;;;;;;;;;;4921284;28;20048;-82
2023/08/01 08:13:13;;;;;;;2.90;1.00;;;;;;;;;;4920515;29;20036;-84
2023/08/01 08:15:38;;;;;;;3.38;1.13;;;;;;;;;;4918781;29;20024;-82
2023/08/01 08:18:04;;;;;;;2.03;0.90;;;;;;;;;;4894563;29;20079;-84
2023/08/01 08:20:31;;;;;;;4.15;1.25;;;;;;;;;;4902492;29;20028;-83
2023/08/01 08:22:56;;;;;;;2.95;1.27;;;;;;;;;;4904852;29;20024;-84
2023/08/01 08:25:22;;;;;;;2.58;1.10;;;;;;;;;;4901209;29;20349;-82
2023/08/01 08:27:50;;;;;;;3.63;1.00;;;;;;;;;;4900189;29;20397;-83
2023/08/01 08:30:16;;;;;;;409.45;269.88;;;;;;;;;;4901411;29;20089;-90
2023/08/01 08:32:42;;;;;;;11.95;7.15;;;;;;;;;;4884944;29;20480;-78
2023/08/01 08:35:07;;;;;;;2.97;1.38;;;;;;;;;;4916563;29;20028;-77
2023/08/01 08:37:33;;;;;;;6.15;2.15;;;;;;;;;;4911236;23;20162;-78
2023/08/01 08:39:59;;;;;;;2.60;1.30;;;;;;;;;;4883844;29;20395;-77
2023/08/01 08:42:24;;;;;;;4.57;1.60;;;;;;;;;;4899718;29;20040;-76
2023/08/01 08:44:54;;;;;;;2.33;1.05;;;;;;;;;;4869697;29;20292;-76
2023/08/01 08:47:23;;;;;;;3.42;1.10;;;;;;;;;;4899516;29;20036;-77
2023/08/01 08:49:49;;;;;;;2.60;0.88;;;;;;;;;;4898924;29;20483;-78
2023/08/01 08:52:15;;;;;;;2.45;1.10;;;;;;;;;;4915750;29;20119;-78
2023/08/01 08:54:41;;;;;;;2.47;0.98;;;;;;;;;;4915903;29;20036;-79
2023/08/01 08:57:06;;;;;;;4.05;1.13;;;;;;;;;;4879667;29;20531;-78
2023/08/01 08:59:32;;;;;;;2.28;1.10;;;;;;;;;;4896556;29;20025;-77
2023/08/01 09:02:00;;;;;;;7.80;1.13;;;;;;;;;;4903870;29;20028;-76
2023/08/01 09:04:27;;;;;;;2.80;1.30;;;;;;;;;;4883520;29;20040;-80
2023/08/01 09:06:58;;;;;;;6.82;1.30;;;;;;;;;;4898959;29;20032;-75
2023/08/01 09:09:28;;;;;;;2.85;1.10;;;;;;;;;;4899208;29;20091;-77
2023/08/01 09:11:57;;;;;;;3.65;1.05;;;;;;;;;;4912754;29;20032;-74
2023/08/01 09:14:23;;;;;;;3.15;1.10;;;;;;;;;;4882848;29;20082;-78
2023/08/01 09:16:48;;;;;;;4.90;1.00;;;;;;;;;;4912581;29;20507;-78
2023/08/01 09:19:18;;;;;;;2.60;1.27;;;;;;;;;;4900267;29;20032;-79
2023/08/01 09:21:43;;;;;;;2.58;1.20;;;;;;;;;;4868203;29;20033;-79
2023/08/01 09:24:13;;;;;;;5.05;1.35;;;;;;;;;;4900192;29;20531;-76
2023/08/01 09:26:39;;;;;;;2.85;1.50;;;;;;;;;;4899778;29;20036;-77
2023/08/01 09:29:05;;;;;;;3.67;1.65;;;;;;;;;;4899724;29;20035;-77
2023/08/01 09:31:39;;;;;;;4.38;1.13;;;;;;;;;;4900201;29;20040;-78
2023/08/01 09:34:05;;;;;;;3.08;1.25;;;;;;;;;;4883112;29;20087;-77
2023/08/01 09:36:31;;;;;;;3.47;1.60;;;;;;;;;;4882981;29;20051;-76
2023/08/01 09:39:00;;;;;;;3.35;1.33;;;;;;;;;;4883401;29;20028;-77
2023/08/01 09:41:26;;;;;;;5.70;1.40;;;;;;;;;;4884124;29;20036;-77
2023/08/01 09:43:52;;;;;;;6.18;1.30;;;;;;;;;;4868652;29;20033;-75
2023/08/01 09:46:18;;;;;;;7.00;1.42;;;;;;;;;;4900581;29;20040;-76
2023/08/01 09:48:44;;;;;;;3.17;1.08;;;;;;;;;;4883087;29;20065;-75
2023/08/01 09:51:10;;;;;;;3.40;1.30;;;;;;;;;;4882957;29;20403;-78
2023/08/01 09:53:48;;;;;;;2.90;1.15;;;;;;;;;;4867653;29;20104;-75
2023/08/01 09:56:16;;;;;;;3.85;1.13;;;;;;;;;;4877303;29;20046;-77
2023/08/01 09:58:43;;;;;;;2.30;1.10;;;;;;;;;;4901655;29;20119;-77
2023/08/01 10:01:08;;;;;;;4.20;1.42;;;;;;;;;;4886051;29;20070;-80
2023/08/01 10:03:34;;;;;;;4.65;1.60;;;;;;;;;;4884575;29;20068;-78
2023/08/01 10:06:00;;;;;;;3.45;1.42;;;;;;;;;;4882997;29;20033;-82
2023/08/01 10:09:01;;;;;;;;;;;;;;;;;;;;;
2023/08/01 10:11:32;;;;;;;3.40;1.50;;;;;;;;;;4882696;29;20056;-81
2023/08/01 10:13:57;;;;;;;2.70;1.13;;;;;;;;;;4882483;29;20024;-83
2023/08/01 10:20:01;;;;;;;;;;;;;;;;;;;;;
2023/08/01 10:22:35;;;;;;;6.10;1.15;;;;;;;;;;4882698;29;20469;-82
2023/08/01 10:25:19;;;;;;;4.53;1.17;;;;;;;;;;4899310;29;20032;-82
2023/08/01 10:28:17;;;;;;;6.40;1.00;;;;;;;;;;4866930;29;20043;-80
2023/08/01 10:30:44;;;;;;;2.53;1.08;;;;;;;;;;4804456;29;20493;-84
2023/08/01 10:33:13;;;;;;;2.58;1.40;;;;;;;;;;4860106;29;20045;-81
2023/08/01 10:35:42;;;;;;;6.55;1.83;;;;;;;;;;4889586;29;20039;-79
2023/08/01 10:38:11;;;;;;;4.85;2.08;;;;;;;;;;4885717;29;20040;-78
2023/08/01 10:40:39;;;;;;;6.00;1.98;;;;;;;;;;4887333;29;20043;-78
2023/08/01 10:43:27;;;;;;;3.60;1.75;;;;;;;;;;4905095;29;20044;-78
2023/08/01 10:46:13;;;;;;;5.70;2.22;;;;;;;;;;4936750;29;20035;-78
2023/08/01 10:49:05;;;;;;;9.90;3.40;;;;;;;;;;4915608;29;20032;-78
2023/08/01 10:51:49;;;;;;;5.15;2.80;;;;;;;;;;4932449;29;20044;-78
2023/08/01 10:54:18;;;;;;;5.72;2.60;;;;;;;;;;4930846;29;20059;-78
2023/08/01 10:56:51;;;;;;;6.78;2.85;;;;;;;;;;4893199;29;20458;-78
2023/08/01 10:59:17;;;;;;;4.72;2.50;;;;;;;;;;4899167;29;20035;-77
2023/08/01 11:01:52;;;;;;;3.88;2.22;;;;;;;;;;4900772;29;20416;-78
2023/08/01 11:04:19;;;;;;;5.05;1.98;;;;;;;;;;4885479;29;20043;-77
2023/08/01 11:06:46;;;;;;;5.25;2.05;;;;;;;;;;4918024;29;20031;-76
2023/08/01 11:09:18;;;;;;;4.05;1.92;;;;;;;;;;4917961;29;20040;-78
2023/08/01 11:11:44;;;;;;;9.38;1.73;;;;;;;;;;4901112;29;20032;-78
2023/08/01 11:14:11;;;;;;;4.10;1.70;;;;;;;;;;4901267;29;20451;-77
2023/08/01 11:16:37;;;;;;;3.50;1.83;;;;;;;;;;4917565;29;20060;-78
2023/08/01 11:19:02;;;;;;;3.03;1.80;;;;;;;;;;4917446;29;20508;-77
2023/08/01 11:21:28;;;;;;;4.10;2.30;;;;;;;;;;4917437;29;20036;-76
2023/08/01 11:23:54;;;;;;;4.68;2.20;;;;;;;;;;4917140;29;20071;-77
2023/08/01 11:26:20;;;;;;;5.38;2.53;;;;;;;;;;4900847;29;20040;-77
2023/08/01 11:28:46;;;;;;;4.38;2.75;;;;;;;;;;4900012;29;20028;-77
2023/08/01 11:31:14;;;;;;;5.68;3.35;;;;;;;;;;4917284;29;20407;-77
2023/08/01 11:33:40;;;;;;;3.50;2.30;;;;;;;;;;4899609;29;20036;-77
2023/08/01 11:36:06;;;;;;;4.38;2.30;;;;;;;;;;4916625;29;20055;-77
2023/08/01 11:38:33;;;;;;;4.97;2.28;;;;;;;;;;4915834;29;20111;-76
2023/08/01 11:41:00;;;;;;;4.25;2.28;;;;;;;;;;4916594;29;20043;-76
2023/08/01 11:43:25;;;;;;;5.60;2.30;;;;;;;;;;4916350;29;20111;-77
2023/08/01 11:45:52;;;;;;;5.03;2.22;;;;;;;;;;4916578;29;20068;-77
2023/08/01 11:48:18;;;;;;;4.80;1.92;;;;;;;;;;4916344;29;20051;-76
2023/08/01 11:50:44;;;;;;;3.40;1.60;;;;;;;;;;4916533;29;20043;-77
2023/08/01 11:53:22;;;;;;;3.85;1.85;;;;;;;;;;4899373;29;20043;-77
2023/08/01 11:55:49;;;;;;;5.30;2.53;;;;;;;;;;4909399;29;20024;-77
2023/08/01 11:58:14;;;;;;;3.10;2.05;;;;;;;;;;4865135;29;20033;-75
2023/08/01 12:00:40;;;;;;;6.13;2.50;;;;;;;;;;4897559;29;20040;-77
2023/08/01 12:03:07;;;;;;;5.30;2.15;;;;;;;;;;4907277;29;20036;-76
2023/08/01 12:05:36;;;;;;;6.78;2.72;;;;;;;;;;4915955;29;20027;-76
2023/08/01 12:08:14;;;;;;;8.38;2.40;;;;;;;;;;4899236;29;20495;-77
2023/08/01 12:10:41;;;;;;;5.78;2.42;;;;;;;;;;4916143;29;20039;-77
2023/08/01 12:13:18;;;;;;;5.10;2.58;;;;;;;;;;4898920;29;20036;-78
2023/08/01 12:15:43;;;;;;;7.30;2.92;;;;;;;;;;4899309;29;20114;-77
2023/08/01 12:18:09;;;;;;;7.18;2.40;;;;;;;;;;4883274;29;20139;-77
2023/08/01 12:20:34;;;;;;;6.20;2.50;;;;;;;;;;4916102;29;20028;-77
2023/08/01 12:23:00;;;;;;;6.72;2.47;;;;;;;;;;4883491;29;20080;-78
2023/08/01 12:25:25;;;;;;;5.70;2.50;;;;;;;;;;4899047;29;20032;-77
2023/08/01 12:27:51;;;;;;;8.20;2.38;;;;;;;;;;4884553;29;20047;-78
2023/08/01 12:30:16;;;;;;;4.65;2.30;;;;;;;;;;4883399;29;20059;-78
2023/08/01 12:32:42;;;;;;;6.32;2.83;;;;;;;;;;4898789;29;20088;-77
2023/08/01 12:35:08;;;;;;;6.57;2.55;;;;;;;;;;4898972;29;20480;-77
2023/08/01 12:37:33;;;;;;;7.43;2.30;;;;;;;;;;4915364;29;20511;-77
2023/08/01 12:39:59;;;;;;;7.70;2.60;;;;;;;;;;4898886;29;20040;-77
2023/08/01 12:42:24;;;;;;;7.30;2.58;;;;;;;;;;4915835;29;20365;-77
2023/08/01 12:44:50;;;;;;;11.13;2.20;;;;;;;;;;4915819;29;20036;-77
2023/08/01 12:47:15;;;;;;;6.65;2.05;;;;;;;;;;4898814;29;20226;-77
2023/08/01 12:49:41;;;;;;;10.00;2.45;;;;;;;;;;4869514;29;20051;-77
2023/08/01 12:52:06;;;;;;;6.32;2.60;;;;;;;;;;4919550;29;20032;-78
2023/08/01 12:54:32;;;;;;;4.90;2.45;;;;;;;;;;4901676;29;20040;-77
2023/08/01 12:56:57;;;;;;;7.00;2.47;;;;;;;;;;4900835;29;20052;-77
2023/08/01 12:59:23;;;;;;;5.45;2.67;;;;;;;;;;4900973;29;20043;-75
2023/08/01 13:01:48;;;;;;;5.60;2.05;;;;;;;;;;4884496;29;20037;-77
2023/08/01 13:04:14;;;;;;;5.88;2.17;;;;;;;;;;4905716;29;20063;-76
2023/08/01 13:06:39;;;;;;;4.70;2.45;;;;;;;;;;4918385;29;20052;-76
2023/08/01 13:09:05;;;;;;;4.32;2.80;;;;;;;;;;4919905;29;20032;-76
2023/08/01 13:11:30;;;;;;;6.15;2.60;;;;;;;;;;4919618;29;20553;-74
2023/08/01 13:13:56;;;;;;;5.90;2.70;;;;;;;;;;4903138;29;20032;-75
2023/08/01 13:16:22;;;;;;;5.07;2.67;;;;;;;;;;4920675;29;20395;-77
2023/08/01 13:18:48;;;;;;;6.70;3.55;;;;;;;;;;4906377;29;20056;-76
2023/08/01 13:21:13;;;;;;;7.93;2.85;;;;;;;;;;4924667;29;20055;-75
2023/08/01 13:23:39;;;;;;;5.30;3.10;;;;;;;;;;4910795;29;20028;-77
2023/08/01 13:26:04;;;;;;;6.10;3.08;;;;;;;;;;4931053;29;20064;-76
2023/08/01 13:28:30;;;;;;;7.03;3.28;;;;;;;;;;4916718;29;20032;-77
2023/08/01 13:30:56;;;;;;;6.45;3.33;;;;;;;;;;4905086;29;20061;-76
2023/08/01 13:33:21;;;;;;;6.90;3.70;;;;;;;;;;4910920;29;20041;-75
2023/08/01 13:35:50;;;;;;;8.93;4.32;;;;;;;;;;4914297;29;20137;-76
2023/08/01 13:38:17;;;;;;;8.88;4.50;;;;;;;;;;4875673;29;20336;-76
2023/08/01 13:40:42;;;;;;;6.85;4.30;;;;;;;;;;4898980;29;20032;-75
2023/08/01 13:43:08;;;;;;;7.68;4.53;;;;;;;;;;4883517;29;20066;-76
2023/08/01 13:45:34;;;;;;;8.15;4.80;;;;;;;;;;4900057;29;20480;-75
2023/08/01 13:47:59;;;;;;;8.05;4.57;;;;;;;;;;4900300;29;20502;-76
2023/08/01 13:50:25;;;;;;;8.38;4.15;;;;;;;;;;4899772;29;20108;-76
2023/08/01 13:52:51;;;;;;;7.40;4.05;;;;;;;;;;4900188;29;20547;-78
2023/08/01 13:55:18;;;;;;;7.35;4.63;;;;;;;;;;4899827;29;20033;-77
2023/08/01 13:57:54;;;;;;;6.72;4.75;;;;;;;;;;4868562;29;20397;-76
2023/08/01 14:00:31;;;;;;;7.20;4.53;;;;;;;;;;4882780;29;20092;-76
2023/08/01 14:03:05;;;;;;;8.93;4.70;;;;;;;;;;4918849;29;20054;-77
2023/08/01 14:05:35;;;;;;;7.70;3.72;;;;;;;;;;4889974;29;20515;-76
2023/08/01 14:08:02;;;;;;;12.65;4.72;;;;;;;;;;4920411;29;20039;-77
2023/08/01 14:10:27;;;;;;;14.18;5.85;;;;;;;;;;4937287;29;20031;-76
2023/08/01 14:12:55;;;;;;;13.65;6.97;;;;;;;;;;4920368;29;20494;-76
2023/08/01 14:15:21;;;;;;;28.83;3.83;;;;;;;;;;4937706;29;20071;-85
2023/08/01 14:17:54;;;;;;;6.93;3.53;;;;;;;;;;4920168;29;20066;-81
2023/08/01 14:20:20;;;;;;;10.77;4.60;;;;;;;;;;4920623;29;20058;-81
2023/08/01 14:22:49;;;;;;;11.40;6.18;;;;;;;;;;4921696;29;20472;-79
2023/08/01 14:25:15;;;;;;;21.80;10.40;;;;;;;;;;4921185;29;20032;-80
2023/08/01 14:27:40;;;;;;;36.88;14.45;;;;;;;;;;4937088;29;20513;-78
2023/08/01 14:30:09;;;;;;;59.78;19.98;;;;;;;;;;4910122;29;20037;-79
2023/08/01 14:32:38;;;;;;;60.78;19.85;;;;;;;;;;4899556;29;20043;-78
2023/08/01 14:35:15;;;;;;;62.80;20.10;;;;;;;;;;4901129;29;20040;-78
2023/08/01 14:37:45;;;;;;;44.30;18.15;;;;;;;;;;4927695;23;20249;-79
2023/08/01 14:40:10;;;;;;;38.00;15.88;;;;;;;;;;4940664;29;20027;-77
2023/08/01 14:42:36;;;;;;;31.02;14.73;;;;;;;;;;4924312;29;20079;-79
2023/08/01 14:45:02;;;;;;;18.35;9.48;;;;;;;;;;4939553;29;20034;-78